APL Denver — D5PJ5 — position and weather

sailwx.info

Track history (hours):
 
Tides and Currents Weather Stations Pressure Air Temp Water Temp Dewpoint Dewpoint Depression Visibility Wind Speed Wind Dir Waves Ship Positions

APL Denver

Last reported at 2018-Jun-21 17:03 UTC. Time now 2018-Jun-21 20:10 UTC.
Position N 34°26' W 076°08'.

Length 267 m; draft 11.5 m.

MMSI: 636018364.

Date/timePositionNaut miles runAvg speedWind from/ knotsBaromVisibWave heightAir tempDewpointWater temp
2018-Jun-21 17:03N 34°26' W 076°08'115.1
2018-Jun-21 16:58N 34°27' W 076°07'14510.3
2018-Jun-21 02:53N 36°52' W 076°20'1 0.2
2018-Jun-20 23:48N 36°51' W 076°20'0 0.0
2018-Jun-20 23:24N 36°51' W 076°20'0 0.0
2018-Jun-20 23:00N 36°51' W 076°19'0 0.0
2018-Jun-20 22:24N 36°51' W 076°19'0 0.0
2018-Jun-20 18:24N 36°51' W 076°19'0 0.0
2018-Jun-20 14:06N 36°51' W 076°20'0 0.0
2018-Jun-20 14:00N 36°51' W 076°20'0 0.0
2018-Jun-20 13:18N 36°51' W 076°20'0 0.0
2018-Jun-20 12:51N 36°51' W 076°20'0 0.0
2018-Jun-20 10:39N 36°51' W 076°20'0 0.0
2018-Jun-20 10:30N 36°51' W 076°20'0 0.0
2018-Jun-20 09:18N 36°51' W 076°20'0 0.7
2018-Jun-20 08:45N 36°52' W 076°19'199 9.9
2018-Jun-19 12:31N 39°36' W 073°56'410.5
2018-Jun-19 12:10N 39°40' W 073°53'310.5
2018-Jun-19 11:51N 39°43' W 073°53'4610.0
2018-Jun-19 07:11N 40°29' W 073°55'517.7
2018-Jun-19 06:54N 40°31' W 074°01'716.6
2018-Jun-19 06:30N 40°38' W 074°03'4 7.9
2018-Jun-19 06:00N 40°39' W 074°08'2 3.2
2018-Jun-19 05:28N 40°40' W 074°08'1 0.1
2018-Jun-18 12:27N 40°41' W 074°09'0 0.0
2018-Jun-18 11:12N 40°41' W 074°09'0 0.0
2018-Jun-18 10:57N 40°41' W 074°09'0 0.0
2018-Jun-18 10:13N 40°41' W 074°09'0 1.8
2018-Jun-18 09:58N 40°41' W 074°09'2 3.7
2018-Jun-18 09:30N 40°39' W 074°09'2 3.9
2018-Jun-18 09:00N 40°39' W 074°06'3 6.3
2018-Jun-18 08:30N 40°37' W 074°03'510.6
2018-Jun-18 08:00N 40°32' W 074°01'611.0
2018-Jun-18 07:28N 40°29' W 073°54'612.8
2018-Jun-18 06:58N 40°27' W 073°46'9 9.7
2018-Jun-18 06:05N 40°28' W 073°35'113.0
2018-Jun-18 05:59N 40°28' W 073°34'613.0
2018-Jun-18 05:30N 40°29' W 073°25'713.0
2018-Jun-18 05:00N 40°29' W 073°17'613.1
2018-Jun-18 04:31N 40°30' W 073°08'4914.4
2018-Jun-18 01:08N 40°31' W 072°04'214.7
2018-Jun-18 01:00N 40°31' W 072°02'914.8
2018-Jun-18 00:25N 40°31' W 071°51'  
2018-Jun-12 18:57N 39°40' W 030°16'715.3
2018-Jun-12 18:30N 39°39' W 030°08'815.3
2018-Jun-12 18:00N 39°37' W 029°58'815.1
2018-Jun-12 17:27N 39°35' W 029°47'815.4
2018-Jun-12 16:57N 39°34' W 029°38'715.3
2018-Jun-12 16:30N 39°33' W 029°29'815.4
2018-Jun-12 16:01N 39°31' W 029°19'815.2
2018-Jun-12 15:30N 39°29' W 029°10'815.3
2018-Jun-12 15:00N 39°28' W 029°00'815.1
2018-Jun-12 14:31N 39°26' W 028°50'815.3
2018-Jun-12 14:00N 39°24' W 028°41'714.7
2018-Jun-12 13:30N 39°21' W 028°32'815.0
2018-Jun-12 13:00N 39°19' W 028°23'814.8
2018-Jun-12 12:27N 39°17' W 028°12'714.8
2018-Jun-12 12:00N 39°16' W 028°04'714.9
2018-Jun-12 11:30N 39°15' W 027°55'715.0
2018-Jun-12 11:01N 39°13' W 027°45'815.4
2018-Jun-12 10:30N 39°12' W 027°35'715.0
2018-Jun-12 10:00N 39°11' W 027°26'815.3
2018-Jun-12 09:31N 39°09' W 027°16'815.0
2018-Jun-12 09:00N 39°08' W 027°06'2515.4
2018-Jun-12 07:21N 39°02' W 026°34'4415.4
2018-Jun-12 04:31N 38°55' W 025°39'115.2
2018-Jun-12 04:28N 38°54' W 025°38'714.8
2018-Jun-12 04:00N 38°53' W 025°30'5815.0
2018-Jun-12 00:09N 38°42' W 024°17'915.2
2018-Jun-11 23:35N 38°40' W 024°06'3315.2
2018-Jun-11 21:27N 38°33' W 023°25'715.2
2018-Jun-11 21:00N 38°32' W 023°17'815.3
2018-Jun-11 20:30N 38°31' W 023°07'  
Track history (hours):
 
Tides and Currents Weather Stations Pressure Air Temp Water Temp Dewpoint Dewpoint Depression Visibility Wind Speed Wind Dir Waves Ship Positions

APL Denver

Last reported at 2018-Jun-21 17:03 UTC. Time now 2018-Jun-21 20:10 UTC.
Position N 34°26' W 076°08'.

Length 267 m; draft 11.5 m.

MMSI: 636018364.

Date/timePositionNaut miles runAvg speedWind from/ knotsBaromVisibWave heightAir tempDewpointWater temp
2018-Jun-21 17:03N 34°26' W 076°08'115.1
2018-Jun-21 16:58N 34°27' W 076°07'14510.3
2018-Jun-21 02:53N 36°52' W 076°20'1 0.2
2018-Jun-20 23:48N 36°51' W 076°20'0 0.0
2018-Jun-20 23:24N 36°51' W 076°20'0 0.0
2018-Jun-20 23:00N 36°51' W 076°19'0 0.0
2018-Jun-20 22:24N 36°51' W 076°19'0 0.0
2018-Jun-20 18:24N 36°51' W 076°19'0 0.0
2018-Jun-20 14:06N 36°51' W 076°20'0 0.0
2018-Jun-20 14:00N 36°51' W 076°20'0 0.0
2018-Jun-20 13:18N 36°51' W 076°20'0 0.0
2018-Jun-20 12:51N 36°51' W 076°20'0 0.0
2018-Jun-20 10:39N 36°51' W 076°20'0 0.0
2018-Jun-20 10:30N 36°51' W 076°20'0 0.0
2018-Jun-20 09:18N 36°51' W 076°20'0 0.7
2018-Jun-20 08:45N 36°52' W 076°19'199 9.9
2018-Jun-19 12:31N 39°36' W 073°56'410.5
2018-Jun-19 12:10N 39°40' W 073°53'310.5
2018-Jun-19 11:51N 39°43' W 073°53'4610.0
2018-Jun-19 07:11N 40°29' W 073°55'517.7
2018-Jun-19 06:54N 40°31' W 074°01'716.6
2018-Jun-19 06:30N 40°38' W 074°03'4 7.9
2018-Jun-19 06:00N 40°39' W 074°08'2 3.2
2018-Jun-19 05:28N 40°40' W 074°08'1 0.1
2018-Jun-18 12:27N 40°41' W 074°09'0 0.0
2018-Jun-18 11:12N 40°41' W 074°09'0 0.0
2018-Jun-18 10:57N 40°41' W 074°09'0 0.0
2018-Jun-18 10:13N 40°41' W 074°09'0 1.8
2018-Jun-18 09:58N 40°41' W 074°09'2 3.7
2018-Jun-18 09:30N 40°39' W 074°09'2 3.9
2018-Jun-18 09:00N 40°39' W 074°06'3 6.3
2018-Jun-18 08:30N 40°37' W 074°03'510.6
2018-Jun-18 08:00N 40°32' W 074°01'611.0
2018-Jun-18 07:28N 40°29' W 073°54'612.8
2018-Jun-18 06:58N 40°27' W 073°46'9 9.7
2018-Jun-18 06:05N 40°28' W 073°35'113.0
2018-Jun-18 05:59N 40°28' W 073°34'613.0
2018-Jun-18 05:30N 40°29' W 073°25'713.0
2018-Jun-18 05:00N 40°29' W 073°17'613.1
2018-Jun-18 04:31N 40°30' W 073°08'4914.4
2018-Jun-18 01:08N 40°31' W 072°04'214.7
2018-Jun-18 01:00N 40°31' W 072°02'914.8
2018-Jun-18 00:25N 40°31' W 071°51'  
2018-Jun-12 18:57N 39°40' W 030°16'715.3
2018-Jun-12 18:30N 39°39' W 030°08'815.3
2018-Jun-12 18:00N 39°37' W 029°58'815.1
2018-Jun-12 17:27N 39°35' W 029°47'815.4
2018-Jun-12 16:57N 39°34' W 029°38'715.3
2018-Jun-12 16:30N 39°33' W 029°29'815.4
2018-Jun-12 16:01N 39°31' W 029°19'815.2
2018-Jun-12 15:30N 39°29' W 029°10'815.3
2018-Jun-12 15:00N 39°28' W 029°00'815.1
2018-Jun-12 14:31N 39°26' W 028°50'815.3
2018-Jun-12 14:00N 39°24' W 028°41'714.7
2018-Jun-12 13:30N 39°21' W 028°32'815.0
2018-Jun-12 13:00N 39°19' W 028°23'814.8
2018-Jun-12 12:27N 39°17' W 028°12'714.8
2018-Jun-12 12:00N 39°16' W 028°04'714.9
2018-Jun-12 11:30N 39°15' W 027°55'715.0
2018-Jun-12 11:01N 39°13' W 027°45'815.4
2018-Jun-12 10:30N 39°12' W 027°35'715.0
2018-Jun-12 10:00N 39°11' W 027°26'815.3
2018-Jun-12 09:31N 39°09' W 027°16'815.0
2018-Jun-12 09:00N 39°08' W 027°06'2515.4
2018-Jun-12 07:21N 39°02' W 026°34'4415.4
2018-Jun-12 04:31N 38°55' W 025°39'115.2
2018-Jun-12 04:28N 38°54' W 025°38'714.8
2018-Jun-12 04:00N 38°53' W 025°30'5815.0
2018-Jun-12 00:09N 38°42' W 024°17'915.2
2018-Jun-11 23:35N 38°40' W 024°06'3315.2
2018-Jun-11 21:27N 38°33' W 023°25'715.2
2018-Jun-11 21:00N 38°32' W 023°17'815.3
2018-Jun-11 20:30N 38°31' W 023°07'  

Dump ship's entire track history